createdAt,value
2022-11-11T00:02:27.855Z,99879.95
2022-11-11T00:05:13.476Z,99881.91
2022-11-11T00:08:02.254Z,99880.88
2022-11-11T00:10:47.631Z,99884.61
2022-11-11T00:13:34.231Z,99889.88
2022-11-11T00:16:20.800Z,99889.77
2022-11-11T00:19:24.990Z,99885.27
2022-11-11T00:22:38.603Z,99884.23
2022-11-11T00:25:24.057Z,99886.41
2022-11-11T00:28:09.856Z,99886.36
2022-11-11T00:31:02.618Z,99889.96
2022-11-11T00:33:48.542Z,99891.46
2022-11-11T00:36:34.307Z,99894.34
2022-11-11T00:39:20.218Z,99888.30
2022-11-11T00:42:05.895Z,99889.12
2022-11-11T00:44:51.479Z,99886.09
2022-11-11T00:47:56.120Z,99885.04
2022-11-11T00:51:00.439Z,99881.98
2022-11-11T00:53:46.329Z,99879.08
2022-11-11T00:56:32.378Z,99877.20
2022-11-11T00:59:18.283Z,99878.02
2022-11-11T01:02:04.043Z,99871.72
2022-11-11T01:04:50.158Z,99872.02
2022-11-11T01:07:36.017Z,99872.16
2022-11-11T01:10:42.388Z,99876.21
2022-11-11T01:13:32.649Z,99877.18
2022-11-11T01:16:21.458Z,99879.46
2022-11-11T01:19:07.116Z,99879.34
2022-11-11T01:21:52.826Z,99880.98
2022-11-11T01:24:39.106Z,99882.66
2022-11-11T01:27:24.799Z,99883.95
2022-11-11T01:30:14.286Z,99882.62
2022-11-11T01:33:00.797Z,99886.17
2022-11-11T01:35:46.567Z,99891.10
2022-11-11T01:38:32.468Z,99891.42
2022-11-11T01:41:36.876Z,99894.73
2022-11-11T01:44:55.614Z,99891.60
2022-11-11T01:48:22.954Z,99893.27
2022-11-11T01:51:06.334Z,99894.02
2022-11-11T01:53:56.147Z,99895.80
2022-11-11T01:56:42.790Z,99897.33
2022-11-11T01:59:29.116Z,99896.70
2022-11-11T02:02:23.861Z,99897.15
2022-11-11T02:05:31.409Z,99904.74
2022-11-11T02:08:32.729Z,99902.70
2022-11-11T02:11:39.109Z,99902.25
2022-11-11T02:14:37.270Z,99904.67
2022-11-11T02:17:23.965Z,99905.59
2022-11-11T02:20:10.627Z,99911.80
2022-11-11T02:23:23.492Z,99916.68
2022-11-11T02:26:09.768Z,99922.85
2022-11-11T02:28:55.706Z,99918.89
2022-11-11T02:31:41.514Z,99920.48
2022-11-11T02:34:31.775Z,99922.25
2022-11-11T02:37:21.061Z,99925.77
2022-11-11T02:40:09.197Z,99927.04
2022-11-11T02:42:54.889Z,99928.70
2022-11-11T02:45:40.413Z,99930.58
2022-11-11T02:48:26.211Z,99930.57
2022-11-11T02:51:12.080Z,99929.83
2022-11-11T02:53:59.230Z,99935.97
2022-11-11T02:57:04.024Z,99934.04
2022-11-11T02:59:49.747Z,99937.00
2022-11-11T03:02:36.022Z,99936.00
2022-11-11T03:05:21.661Z,99940.40
2022-11-11T03:08:07.630Z,99938.49
2022-11-11T03:10:53.606Z,99938.44
2022-11-11T03:13:39.390Z,99941.19
2022-11-11T03:16:44.053Z,99941.57
2022-11-11T03:19:30.195Z,99941.97
2022-11-11T03:25:40.394Z,99947.38
2022-11-11T03:28:26.264Z,99944.62
2022-11-11T03:31:11.941Z,99942.40
2022-11-11T03:34:17.572Z,99945.83
2022-11-11T03:37:25.988Z,99948.75
2022-11-11T03:40:12.487Z,99954.34
2022-11-11T03:43:03.908Z,99952.87
2022-11-11T03:45:51.633Z,99959.03
2022-11-11T03:48:37.432Z,99957.06
2022-11-11T03:51:22.910Z,99959.85
2022-11-11T03:54:08.398Z,99957.95
2022-11-11T03:57:14.245Z,99955.64
2022-11-11T03:59:59.943Z,99958.68
2022-11-11T04:03:04.559Z,99958.36
2022-11-11T04:06:09.154Z,99962.83
2022-11-11T04:09:13.546Z,99961.20
2022-11-11T04:11:59.215Z,99965.07
2022-11-11T04:15:03.617Z,99959.98
2022-11-11T04:17:49.316Z,99965.91
2022-11-11T04:20:53.825Z,99965.64
2022-11-11T04:23:39.647Z,99963.05
2022-11-11T04:26:25.320Z,99965.24
2022-11-11T04:29:29.603Z,99968.72
2022-11-11T04:32:35.370Z,99969.77
2022-11-11T04:35:21.050Z,99970.48
2022-11-11T04:38:27.023Z,99976.75
2022-11-11T04:41:13.309Z,99982.47
2022-11-11T04:44:17.533Z,99987.73
2022-11-11T04:47:03.147Z,99989.55
2022-11-11T04:49:48.696Z,99994.75
2022-11-11T04:52:34.321Z,100001.36
2022-11-11T04:55:38.797Z,100005.50
2022-11-11T04:58:25.796Z,100006.52
2022-11-11T05:01:11.152Z,100012.12
2022-11-11T05:03:57.082Z,100014.71
2022-11-11T05:07:01.672Z,100014.06
2022-11-11T05:09:47.097Z,100016.11
2022-11-11T05:12:32.684Z,100013.95
2022-11-11T05:15:37.302Z,100015.36
2022-11-11T05:18:41.715Z,100021.42
2022-11-11T05:21:28.686Z,100026.29
2022-11-11T05:24:33.163Z,100030.08
2022-11-11T05:27:19.076Z,100037.02
2022-11-11T05:30:05.826Z,100042.29
2022-11-11T05:32:51.340Z,100049.46
2022-11-11T05:35:37.042Z,100053.58
2022-11-11T05:38:22.817Z,100060.94
2022-11-11T05:41:08.752Z,100064.16
2022-11-11T05:43:54.614Z,100069.50
2022-11-11T05:46:40.122Z,100068.73
2022-11-11T05:49:26.158Z,100076.30
2022-11-11T05:52:12.661Z,100074.16
2022-11-11T05:54:58.552Z,100076.52
2022-11-11T05:57:44.870Z,100082.15
2022-11-11T06:00:30.773Z,100086.86
2022-11-11T06:03:16.727Z,100086.95
2022-11-11T06:06:02.521Z,100092.94
2022-11-11T06:08:48.199Z,100088.31
2022-11-11T06:11:33.993Z,100087.07
2022-11-11T06:14:19.591Z,100087.47
2022-11-11T06:17:05.208Z,100092.34
2022-11-11T06:19:50.834Z,100095.20
2022-11-11T06:22:55.361Z,100097.00
2022-11-11T06:25:59.990Z,100104.85
2022-11-11T06:28:53.403Z,100109.03
2022-11-11T06:31:39.242Z,100109.27
2022-11-11T06:34:24.822Z,100111.27
2022-11-11T06:37:10.607Z,100117.15
2022-11-11T06:39:56.145Z,100117.48
2022-11-11T06:42:41.723Z,100116.58
2022-11-11T06:45:29.091Z,100118.25
2022-11-11T06:48:14.807Z,100123.72
2022-11-11T06:51:05.339Z,100120.56
2022-11-11T06:53:51.693Z,100123.83
2022-11-11T06:56:37.320Z,100125.70
2022-11-11T06:59:23.146Z,100125.19
2022-11-11T07:02:14.983Z,100128.20
2022-11-11T07:05:00.893Z,100129.83
2022-11-11T07:07:46.466Z,100132.69
2022-11-11T07:10:32.781Z,100133.70
2022-11-11T07:13:18.844Z,100131.95
2022-11-11T07:16:04.629Z,100130.66
2022-11-11T07:18:50.517Z,100134.09
2022-11-11T07:21:36.204Z,100141.53
2022-11-11T07:24:21.904Z,100139.39
2022-11-11T07:27:07.572Z,100138.81
2022-11-11T07:29:53.272Z,100138.40
2022-11-11T07:32:46.363Z,100147.56
2022-11-11T07:35:32.134Z,100142.34
2022-11-11T07:38:17.919Z,100150.54
2022-11-11T07:41:03.614Z,100154.64
2022-11-11T07:43:49.160Z,100153.38
2022-11-11T07:46:34.728Z,100160.64
2022-11-11T07:49:20.409Z,100155.46
2022-11-11T07:52:06.097Z,100157.56
2022-11-11T07:54:51.678Z,100153.84
2022-11-11T07:57:37.335Z,100158.89
2022-11-11T08:00:23.458Z,100163.55
2022-11-11T08:03:09.659Z,100168.50
2022-11-11T08:05:56.569Z,100169.52
2022-11-11T08:08:41.982Z,100175.98
2022-11-11T08:11:46.671Z,100181.05
2022-11-11T08:14:32.572Z,100182.87
2022-11-11T08:17:18.147Z,100186.79
2022-11-11T08:20:04.249Z,100185.26
2022-11-11T08:23:16.973Z,100189.35
2022-11-11T08:26:06.268Z,100195.02
2022-11-11T08:28:52.726Z,100195.59
2022-11-11T08:31:39.447Z,100194.74
2022-11-11T08:34:25.294Z,100198.06
2022-11-11T08:37:10.962Z,100201.30
2022-11-11T08:39:57.513Z,100198.89
2022-11-11T08:42:43.144Z,100205.72
2022-11-11T08:45:29.300Z,100207.90
2022-11-11T08:48:14.788Z,100203.26
2022-11-11T08:51:00.463Z,100202.94
2022-11-11T08:53:46.137Z,100198.63
2022-11-11T08:56:31.931Z,100197.70
2022-11-11T08:59:17.605Z,100202.14
2022-11-11T09:02:03.190Z,100198.31
2022-11-11T09:04:53.025Z,100193.63
2022-11-11T09:07:41.522Z,100187.28
2022-11-11T09:10:27.131Z,100191.73
2022-11-11T09:13:12.731Z,100188.06
2022-11-11T09:15:59.911Z,100184.41
2022-11-11T09:18:46.715Z,100181.08
2022-11-11T09:21:32.605Z,100175.61
2022-11-11T09:24:18.401Z,100183.95
2022-11-11T09:27:04.081Z,100181.88
2022-11-11T09:29:49.525Z,100183.48
2022-11-11T09:32:35.580Z,100180.52
2022-11-11T09:35:21.595Z,100177.36
2022-11-11T09:38:07.062Z,100173.83
2022-11-11T09:41:12.795Z,100170.02
2022-11-11T09:44:00.505Z,100169.02
2022-11-11T09:46:55.199Z,100172.30
2022-11-11T09:49:44.114Z,100173.41
2022-11-11T09:52:39.266Z,100171.90
2022-11-11T09:55:32.196Z,100168.04
2022-11-11T09:58:21.335Z,100162.69
2022-11-11T10:01:11.294Z,100157.34
2022-11-11T10:04:05.303Z,100159.20
2022-11-11T10:06:52.454Z,100153.05
2022-11-11T10:09:48.016Z,100148.51
2022-11-11T10:12:43.532Z,100150.24
2022-11-11T10:15:47.303Z,100143.21
2022-11-11T10:18:48.552Z,100141.12
2022-11-11T10:22:11.876Z,100147.41
2022-11-11T10:25:17.063Z,100146.63
2022-11-11T10:28:02.643Z,100148.60
2022-11-11T10:30:49.048Z,100144.87
2022-11-11T10:33:57.691Z,100143.35
2022-11-11T10:36:54.589Z,100149.52
2022-11-11T10:40:11.435Z,100149.52
2022-11-11T10:42:57.322Z,100154.85
2022-11-11T10:45:50.335Z,100152.57
2022-11-11T10:48:47.597Z,100162.88
2022-11-11T10:51:37.500Z,100163.35
2022-11-11T10:54:26.848Z,100160.25
2022-11-11T10:57:22.912Z,100162.90
2022-11-11T11:00:10.497Z,100161.80
2022-11-11T11:03:02.479Z,100161.54
2022-11-11T11:06:04.051Z,100159.98
2022-11-11T11:08:54.760Z,100157.02
2022-11-11T11:11:43.198Z,100155.35
2022-11-11T11:14:37.826Z,100149.67
2022-11-11T11:17:30.703Z,100152.05
2022-11-11T11:20:20.200Z,100153.55
2022-11-11T11:23:05.576Z,100146.15
2022-11-11T11:25:57.009Z,100151.66
2022-11-11T11:28:59.583Z,100153.88
2022-11-11T11:31:47.688Z,100153.82
2022-11-11T11:34:46.721Z,100152.02
2022-11-11T11:37:32.193Z,100154.88
2022-11-11T11:40:17.700Z,100157.82
2022-11-11T11:43:03.441Z,100149.18
2022-11-11T11:45:55.520Z,100155.42
2022-11-11T11:48:44.335Z,100143.41
2022-11-11T11:51:36.193Z,100142.69
2022-11-11T11:54:35.940Z,100146.81
2022-11-11T11:57:33.447Z,100148.42
2022-11-11T12:00:21.024Z,100148.18
2022-11-11T12:03:17.389Z,100156.02
2022-11-11T12:06:17.636Z,100167.36
2022-11-11T12:09:09.245Z,100166.17
2022-11-11T12:12:03.088Z,100168.65
2022-11-11T12:15:11.668Z,100168.02
2022-11-11T12:18:22.271Z,100164.09
2022-11-11T12:21:19.015Z,100163.08
2022-11-11T12:24:23.105Z,100165.65
2022-11-11T12:27:36.255Z,100169.95
2022-11-11T12:30:28.592Z,100164.67
2022-11-11T12:33:20.144Z,100157.88
2022-11-11T12:36:11.052Z,100162.42
2022-11-11T12:39:02.797Z,100160.36
2022-11-11T12:41:57.464Z,100163.57
2022-11-11T12:45:09.268Z,100166.48
2022-11-11T12:48:03.899Z,100161.27
2022-11-11T12:51:12.102Z,100167.39
2022-11-11T12:54:24.711Z,100169.02
2022-11-11T12:57:16.060Z,100155.33
2022-11-11T13:00:13.739Z,100151.64
2022-11-11T13:03:10.438Z,100149.37
2022-11-11T13:05:55.989Z,100151.91
2022-11-11T13:09:09.337Z,100161.87
2022-11-11T13:12:03.757Z,100162.14
2022-11-11T13:14:57.088Z,100164.24
2022-11-11T13:17:42.050Z,100168.31
2022-11-11T13:20:36.606Z,100168.70
2022-11-11T13:23:25.576Z,100174.05
2022-11-11T13:26:34.269Z,100184.77
2022-11-11T13:31:39.971Z,100187.20
2022-11-11T13:34:25.881Z,100179.36
2022-11-11T13:37:28.314Z,100184.94
2022-11-11T13:40:38.074Z,100191.99
2022-11-11T13:43:35.894Z,100198.37
2022-11-11T13:46:44.495Z,100206.77
2022-11-11T13:49:35.438Z,100209.81
2022-11-11T13:52:28.162Z,100212.08
2022-11-11T13:55:44.181Z,100210.41
2022-11-11T13:58:35.167Z,100209.05
2022-11-11T14:01:21.018Z,100211.45
2022-11-11T14:04:08.309Z,100213.36
2022-11-11T14:06:54.229Z,100212.47
2022-11-11T14:09:57.493Z,100199.80
2022-11-11T14:12:46.931Z,100205.88
2022-11-11T14:15:37.091Z,100214.16
2022-11-11T14:18:26.037Z,100219.17
2022-11-11T14:21:11.693Z,100222.41
2022-11-11T14:23:57.276Z,100226.44
2022-11-11T14:26:43.081Z,100219.62
2022-11-11T14:29:35.207Z,100229.83
2022-11-11T14:32:45.539Z,100223.45
2022-11-11T14:35:48.246Z,100222.28
2022-11-11T14:38:43.139Z,100218.63
2022-11-11T14:41:41.216Z,100224.89
2022-11-11T14:44:26.835Z,100222.56
2022-11-11T14:47:12.586Z,100224.84
2022-11-11T14:49:59.857Z,100226.80
2022-11-11T14:52:45.897Z,100231.20
2022-11-11T14:55:33.917Z,100233.69
2022-11-11T14:58:21.547Z,100242.71
2022-11-11T15:01:07.418Z,100245.52
2022-11-11T15:03:53.867Z,100248.93
2022-11-11T15:06:44.291Z,100249.03
2022-11-11T15:10:00.883Z,100247.19
2022-11-11T15:13:05.697Z,100238.30
2022-11-11T15:15:54.499Z,100238.37
2022-11-11T15:19:03.171Z,100240.84
2022-11-11T15:22:04.758Z,100237.48
2022-11-11T15:25:11.412Z,100233.54
2022-11-11T15:28:02.250Z,100228.85
2022-11-11T15:31:28.221Z,100237.15
2022-11-11T15:34:32.669Z,100242.11
2022-11-11T15:37:19.404Z,100243.64
2022-11-11T15:40:07.791Z,100238.88
2022-11-11T15:42:53.299Z,100240.85
2022-11-11T15:45:38.986Z,100240.89
2022-11-11T15:48:27.757Z,100243.70
2022-11-11T15:51:22.734Z,100246.38
2022-11-11T15:54:10.430Z,100253.05
2022-11-11T15:56:56.090Z,100253.92
2022-11-11T15:59:42.067Z,100248.90
2022-11-11T16:02:34.887Z,100243.08
2022-11-11T16:05:24.892Z,100239.48
2022-11-11T16:08:18.022Z,100242.59
2022-11-11T16:11:03.937Z,100244.61
2022-11-11T16:13:56.606Z,100243.88
2022-11-11T16:16:43.836Z,100236.83
2022-11-11T16:19:35.637Z,100231.47
2022-11-11T16:22:26.338Z,100233.91
2022-11-11T16:25:20.917Z,100239.11
2022-11-11T16:28:06.411Z,100243.20
2022-11-11T16:30:52.241Z,100248.67
2022-11-11T16:33:37.875Z,100251.04
2022-11-11T16:36:23.569Z,100259.75
2022-11-11T16:39:22.084Z,100262.90
2022-11-11T16:42:25.048Z,100253.73
2022-11-11T16:45:21.573Z,100250.08
2022-11-11T16:48:31.526Z,100242.88
2022-11-11T16:51:18.948Z,100240.95
2022-11-11T16:54:10.356Z,100243.66
2022-11-11T16:56:57.484Z,100240.87
2022-11-11T16:59:45.483Z,100243.59
2022-11-11T17:02:31.309Z,100244.41
2022-11-11T17:05:17.099Z,100243.75
2022-11-11T17:08:28.080Z,100246.73
2022-11-11T17:11:36.084Z,100247.17
2022-11-11T17:14:21.987Z,100241.54
2022-11-11T17:17:11.472Z,100241.83
2022-11-11T17:19:57.920Z,100242.42
2022-11-11T17:22:55.585Z,100242.43
2022-11-11T17:25:41.305Z,100244.89
2022-11-11T17:28:30.376Z,100241.96
2022-11-11T17:31:16.666Z,100242.95
2022-11-11T17:34:20.653Z,100242.95
2022-11-11T17:37:06.221Z,100235.09
2022-11-11T17:39:52.247Z,100236.45
2022-11-11T17:42:38.035Z,100234.16
2022-11-11T17:45:23.816Z,100232.70
2022-11-11T17:48:10.365Z,100224.99
2022-11-11T17:50:56.035Z,100222.52
2022-11-11T17:53:41.695Z,100222.60
2022-11-11T17:56:27.278Z,100222.52
2022-11-11T17:59:12.956Z,100220.31
2022-11-11T18:01:59.659Z,100217.95
2022-11-11T18:04:45.360Z,100221.47
2022-11-11T18:07:31.069Z,100219.02
2022-11-11T18:10:16.865Z,100214.75
2022-11-11T18:13:02.403Z,100215.88
2022-11-11T18:15:48.290Z,100217.55
2022-11-11T18:18:34.382Z,100213.98
2022-11-11T18:21:21.647Z,100210.98
2022-11-11T18:24:08.793Z,100210.67
2022-11-11T18:26:57.068Z,100211.13
2022-11-11T18:29:44.717Z,100210.36
2022-11-11T18:32:30.798Z,100210.19
2022-11-11T18:35:18.933Z,100198.08
2022-11-11T18:38:04.615Z,100193.02
2022-11-11T18:40:50.212Z,100193.45
2022-11-11T18:43:44.795Z,100195.59
2022-11-11T18:46:30.916Z,100192.27
2022-11-11T18:49:16.535Z,100185.50
2022-11-11T18:52:02.357Z,100187.80
2022-11-11T18:54:47.937Z,100187.42
2022-11-11T18:57:33.534Z,100189.27
2022-11-11T19:00:20.342Z,100190.13
2022-11-11T19:03:06.002Z,100187.18
2022-11-11T19:05:51.695Z,100183.89
2022-11-11T19:08:37.897Z,100182.70
2022-11-11T19:11:23.685Z,100182.73
2022-11-11T19:14:10.080Z,100191.25
2022-11-11T19:16:55.914Z,100195.07
2022-11-11T19:19:41.660Z,100204.31
2022-11-11T19:22:27.541Z,100201.42
2022-11-11T19:25:13.326Z,100204.91
2022-11-11T19:27:59.256Z,100203.16
2022-11-11T19:30:44.725Z,100198.83
2022-11-11T19:33:33.251Z,100202.96
